Track Алябьев Константин

Time Latitude Longitude Accuracy (66% radius in meters) Altitude (meters) Speed (km/hour) Bearing (degrees) Battery (%) GPS flag
11:54:01 60.403310 30.324620 0 0 0 0 1 delete
11:54:00 60.403310 30.324610 0 0 0 0 1 delete
11:53:59 60.403310 30.324610 0 0 0 0 1 delete
11:48:38 60.403460 30.325080 0 0 0 0 1 delete
11:48:37 60.403460 30.325080 0 0 0 0 1 delete
11:48:36 60.403460 30.325080 0 0 0 0 1 delete
11:48:35 60.403460 30.325080 0 0 0 0 1 delete
11:48:34 60.403450 30.325070 0 0 0 0 1 delete
11:48:33 60.403450 30.325070 0 0 0 0 1 delete
11:48:32 60.403450 30.325060 0 0 0 0 1 delete
11:48:31 60.403450 30.325070 0 0 0 0 1 delete
11:48:30 60.403450 30.325070 0 0 0 0 1 delete
11:46:38 60.403540 30.324960 0 0 0 0 1 delete
11:46:37 60.403540 30.324970 0 0 0 0 1 delete
11:46:36 60.403530 30.324980 0 0 0 0 1 delete
11:46:35 60.403530 30.325000 0 0 0 0 1 delete
11:46:34 60.403520 30.325010 0 0 0 0 1 delete
11:46:33 60.403520 30.325010 0 0 0 0 1 delete
11:46:32 60.403520 30.325010 0 0 0 0 1 delete
11:46:31 60.403520 30.325010 0 0 0 0 1 delete
11:46:30 60.403540 30.325020 0 0 0 0 1 delete
11:46:29 60.403540 30.325020 0 0 0 0 1 delete
11:46:28 60.403530 30.325010 0 0 0 0 1 delete
11:46:27 60.403530 30.325010 0 0 0 0 1 delete
11:46:26 60.403530 30.325050 0 0 0 0 1 delete
11:46:25 60.403530 30.325070 0 0 0 0 1 delete
11:46:24 60.403530 30.325090 0 0 0 0 1 delete
11:46:23 60.403530 30.325120 0 0 0 0 1 delete
11:46:22 60.403530 30.325130 0 0 0 0 1 delete
11:46:21 60.403530 30.325150 0 0 0 0 1 delete
11:46:20 60.403530 30.325160 0 0 0 0 1 delete
11:46:19 60.403530 30.325170 0 0 0 0 1 delete
11:46:18 60.403530 30.325170 0 0 0 0 1 delete
11:46:17 60.403530 30.325200 0 0 0 0 1 delete
11:46:16 60.403540 30.325230 0 0 0 0 1 delete
11:46:15 60.403540 30.325260 0 0 0 0 1 delete
11:46:14 60.403540 30.325310 0 0 0 0 1 delete
11:46:13 60.403540 30.325330 0 0 0 0 1 delete
11:46:12 60.403540 30.325360 0 0 0 0 1 delete
11:46:11 60.403530 30.325390 0 0 0 0 1 delete
11:46:10 60.403530 30.325400 0 0 0 0 1 delete
11:46:09 60.403530 30.325400 0 0 0 0 1 delete
11:46:08 60.403530 30.325420 0 0 0 0 1 delete
11:46:07 60.403530 30.325430 0 0 0 0 1 delete
11:46:06 60.403530 30.325450 0 0 0 0 1 delete
11:46:05 60.403530 30.325470 0 0 0 0 1 delete
11:46:04 60.403540 30.325500 0 0 0 0 1 delete
11:46:03 60.403540 30.325520 0 0 0 0 1 delete
11:46:02 60.403540 30.325540 0 0 0 0 1 delete
11:46:01 60.403530 30.325570 0 0 0 0 1 delete